sensor_id;sensor_type;location;lat;lon;timestamp;temperature;humidity
46508;DHT22;32223;53.654;10.014;2023-04-03T00:00:56;-0.50;99.90
46508;DHT22;32223;53.654;10.014;2023-04-03T00:03:22;-0.60;99.90
46508;DHT22;32223;53.654;10.014;2023-04-03T00:05:48;-0.60;99.90
46508;DHT22;32223;53.654;10.014;2023-04-03T00:08:13;-0.60;99.90
46508;DHT22;32223;53.654;10.014;2023-04-03T00:10:39;-0.60;99.90
46508;DHT22;32223;53.654;10.014;2023-04-03T00:13:05;-0.60;99.90
46508;DHT22;32223;53.654;10.014;2023-04-03T00:15:31;-0.60;99.90
46508;DHT22;32223;53.654;10.014;2023-04-03T00:17:57;-0.60;99.90
46508;DHT22;32223;53.654;10.014;2023-04-03T00:20:23;-0.60;99.90
46508;DHT22;32223;53.654;10.014;2023-04-03T00:22:48;-0.60;99.90
46508;DHT22;32223;53.654;10.014;2023-04-03T00:25:14;-0.70;99.90
46508;DHT22;32223;53.654;10.014;2023-04-03T00:27:40;-0.70;99.90
46508;DHT22;32223;53.654;10.014;2023-04-03T00:30:08;-0.70;99.90
46508;DHT22;32223;53.654;10.014;2023-04-03T00:32:35;-0.70;99.90
46508;DHT22;32223;53.654;10.014;2023-04-03T00:35:00;-0.70;99.90
46508;DHT22;32223;53.654;10.014;2023-04-03T00:37:26;-0.80;99.90
46508;DHT22;32223;53.654;10.014;2023-04-03T00:39:52;-0.80;99.90
46508;DHT22;32223;53.654;10.014;2023-04-03T00:42:17;-0.70;99.90
46508;DHT22;32223;53.654;10.014;2023-04-03T00:47:12;-0.80;99.90
46508;DHT22;32223;53.654;10.014;2023-04-03T00:49:38;-0.80;99.90
46508;DHT22;32223;53.654;10.014;2023-04-03T00:52:11;-0.80;99.90
46508;DHT22;32223;53.654;10.014;2023-04-03T00:54:38;-0.80;99.90
46508;DHT22;32223;53.654;10.014;2023-04-03T00:57:07;-0.80;99.90
46508;DHT22;32223;53.654;10.014;2023-04-03T00:59:36;-0.80;99.90
46508;DHT22;32223;53.654;10.014;2023-04-03T01:02:03;-0.90;99.90
46508;DHT22;32223;53.654;10.014;2023-04-03T01:04:35;-0.90;99.90
46508;DHT22;32223;53.654;10.014;2023-04-03T01:07:08;-0.90;99.90
46508;DHT22;32223;53.654;10.014;2023-04-03T01:09:34;-0.90;99.90
46508;DHT22;32223;53.654;10.014;2023-04-03T01:12:18;-0.90;99.90
46508;DHT22;32223;53.654;10.014;2023-04-03T01:14:45;-1.00;99.90
46508;DHT22;32223;53.654;10.014;2023-04-03T01:17:33;-1.00;99.90
46508;DHT22;32223;53.654;10.014;2023-04-03T01:25:50;-1.00;99.90
46508;DHT22;32223;53.654;10.014;2023-04-03T01:28:28;-1.00;99.90
46508;DHT22;32223;53.654;10.014;2023-04-03T01:31:20;-1.10;99.90
46508;DHT22;32223;53.654;10.014;2023-04-03T01:33:48;-1.10;99.90
46508;DHT22;32223;53.654;10.014;2023-04-03T01:36:20;-1.10;99.90
46508;DHT22;32223;53.654;10.014;2023-04-03T01:38:47;-1.10;99.90
46508;DHT22;32223;53.654;10.014;2023-04-03T01:41:13;-1.10;99.90
46508;DHT22;32223;53.654;10.014;2023-04-03T01:43:38;-1.10;99.90
46508;DHT22;32223;53.654;10.014;2023-04-03T01:46:04;-1.10;99.90
46508;DHT22;32223;53.654;10.014;2023-04-03T01:48:30;-1.10;99.90
46508;DHT22;32223;53.654;10.014;2023-04-03T01:50:56;-1.10;99.90
46508;DHT22;32223;53.654;10.014;2023-04-03T01:53:21;-1.10;99.90
46508;DHT22;32223;53.654;10.014;2023-04-03T01:55:48;-1.10;99.90
46508;DHT22;32223;53.654;10.014;2023-04-03T01:58:13;-1.20;99.90
46508;DHT22;32223;53.654;10.014;2023-04-03T02:00:39;-1.10;99.90
46508;DHT22;32223;53.654;10.014;2023-04-03T02:03:04;-1.10;99.90
46508;DHT22;32223;53.654;10.014;2023-04-03T02:05:30;-1.00;99.90
46508;DHT22;32223;53.654;10.014;2023-04-03T02:07:56;-1.10;99.90
46508;DHT22;32223;53.654;10.014;2023-04-03T02:10:21;-1.10;99.90
46508;DHT22;32223;53.654;10.014;2023-04-03T02:12:47;-1.10;99.90
46508;DHT22;32223;53.654;10.014;2023-04-03T02:15:13;-1.10;99.90
46508;DHT22;32223;53.654;10.014;2023-04-03T02:17:38;-1.10;99.90
46508;DHT22;32223;53.654;10.014;2023-04-03T02:20:04;-1.10;99.90
46508;DHT22;32223;53.654;10.014;2023-04-03T02:22:30;-1.10;99.90
46508;DHT22;32223;53.654;10.014;2023-04-03T02:24:56;-1.20;99.90
46508;DHT22;32223;53.654;10.014;2023-04-03T02:27:21;-1.20;99.90
46508;DHT22;32223;53.654;10.014;2023-04-03T02:29:47;-1.20;99.90
46508;DHT22;32223;53.654;10.014;2023-04-03T02:32:13;-1.20;99.90
46508;DHT22;32223;53.654;10.014;2023-04-03T02:34:38;-1.20;99.90
46508;DHT22;32223;53.654;10.014;2023-04-03T02:37:04;-1.20;99.90
46508;DHT22;32223;53.654;10.014;2023-04-03T02:39:29;-1.20;99.90
46508;DHT22;32223;53.654;10.014;2023-04-03T02:41:55;-1.20;99.90
46508;DHT22;32223;53.654;10.014;2023-04-03T02:44:21;-1.20;99.90
46508;DHT22;32223;53.654;10.014;2023-04-03T02:46:49;-1.20;99.90
46508;DHT22;32223;53.654;10.014;2023-04-03T02:49:14;-1.20;99.90
46508;DHT22;32223;53.654;10.014;2023-04-03T02:51:41;-1.20;99.90
46508;DHT22;32223;53.654;10.014;2023-04-03T02:54:06;-1.20;99.90
46508;DHT22;32223;53.654;10.014;2023-04-03T02:56:32;-1.30;99.90
46508;DHT22;32223;53.654;10.014;2023-04-03T02:58:58;-1.30;99.90
46508;DHT22;32223;53.654;10.014;2023-04-03T03:01:23;-1.30;99.90
46508;DHT22;32223;53.654;10.014;2023-04-03T03:03:49;-1.30;99.90
46508;DHT22;32223;53.654;10.014;2023-04-03T03:06:16;-1.30;99.90
46508;DHT22;32223;53.654;10.014;2023-04-03T03:08:43;-1.30;99.90
46508;DHT22;32223;53.654;10.014;2023-04-03T03:11:09;-1.30;99.90
46508;DHT22;32223;53.654;10.014;2023-04-03T03:13:35;-1.30;99.90
46508;DHT22;32223;53.654;10.014;2023-04-03T03:16:02;-1.30;99.90
46508;DHT22;32223;53.654;10.014;2023-04-03T03:18:28;-1.30;99.90
46508;DHT22;32223;53.654;10.014;2023-04-03T03:20:56;-1.40;99.90
46508;DHT22;32223;53.654;10.014;2023-04-03T03:23:23;-1.40;99.90
46508;DHT22;32223;53.654;10.014;2023-04-03T03:26:01;-1.40;99.90
46508;DHT22;32223;53.654;10.014;2023-04-03T03:28:28;-1.40;99.90
46508;DHT22;32223;53.654;10.014;2023-04-03T03:30:54;-1.40;99.90
46508;DHT22;32223;53.654;10.014;2023-04-03T03:33:20;-1.40;99.90
46508;DHT22;32223;53.654;10.014;2023-04-03T03:35:45;-1.40;99.90
46508;DHT22;32223;53.654;10.014;2023-04-03T03:38:11;-1.40;99.90
46508;DHT22;32223;53.654;10.014;2023-04-03T03:40:37;-1.40;99.90
46508;DHT22;32223;53.654;10.014;2023-04-03T03:43:02;-1.40;99.90
46508;DHT22;32223;53.654;10.014;2023-04-03T03:45:28;-1.50;99.90
46508;DHT22;32223;53.654;10.014;2023-04-03T03:47:53;-1.50;99.90
46508;DHT22;32223;53.654;10.014;2023-04-03T03:50:19;-1.50;99.90
46508;DHT22;32223;53.654;10.014;2023-04-03T03:52:45;-1.50;99.90
46508;DHT22;32223;53.654;10.014;2023-04-03T03:55:11;-1.50;99.90
46508;DHT22;32223;53.654;10.014;2023-04-03T03:57:37;-1.50;99.90
46508;DHT22;32223;53.654;10.014;2023-04-03T04:00:03;-1.50;99.90
46508;DHT22;32223;53.654;10.014;2023-04-03T04:02:29;-1.50;99.90
46508;DHT22;32223;53.654;10.014;2023-04-03T04:04:55;-1.50;99.90
46508;DHT22;32223;53.654;10.014;2023-04-03T04:07:21;-1.50;99.90
46508;DHT22;32223;53.654;10.014;2023-04-03T04:09:47;-1.50;99.90
46508;DHT22;32223;53.654;10.014;2023-04-03T04:12:12;-1.60;99.90
46508;DHT22;32223;53.654;10.014;2023-04-03T04:14:38;-1.40;99.90
46508;DHT22;32223;53.654;10.014;2023-04-03T04:17:03;-1.00;99.90
46508;DHT22;32223;53.654;10.014;2023-04-03T04:19:29;-0.80;99.90
46508;DHT22;32223;53.654;10.014;2023-04-03T04:21:55;-0.70;99.90
46508;DHT22;32223;53.654;10.014;2023-04-03T04:24:20;-0.80;99.90
46508;DHT22;32223;53.654;10.014;2023-04-03T04:26:48;-0.90;99.90
46508;DHT22;32223;53.654;10.014;2023-04-03T04:29:13;-1.00;99.90
46508;DHT22;32223;53.654;10.014;2023-04-03T04:31:39;-1.20;99.90
46508;DHT22;32223;53.654;10.014;2023-04-03T04:34:05;-1.30;99.90
46508;DHT22;32223;53.654;10.014;2023-04-03T04:36:31;-1.30;99.90
46508;DHT22;32223;53.654;10.014;2023-04-03T04:38:56;-1.40;99.90
46508;DHT22;32223;53.654;10.014;2023-04-03T04:41:23;-1.40;99.90
46508;DHT22;32223;53.654;10.014;2023-04-03T04:43:50;-1.40;99.90
46508;DHT22;32223;53.654;10.014;2023-04-03T04:46:16;-1.50;99.90
46508;DHT22;32223;53.654;10.014;2023-04-03T04:48:43;-1.50;99.90
46508;DHT22;32223;53.654;10.014;2023-04-03T04:51:08;-1.50;99.90
46508;DHT22;32223;53.654;10.014;2023-04-03T04:53:34;-1.50;99.90
46508;DHT22;32223;53.654;10.014;2023-04-03T04:56:00;-1.60;99.90
46508;DHT22;32223;53.654;10.014;2023-04-03T04:58:26;-1.60;99.90
46508;DHT22;32223;53.654;10.014;2023-04-03T05:01:09;-1.60;99.90
46508;DHT22;32223;53.654;10.014;2023-04-03T05:03:35;-1.60;99.90
46508;DHT22;32223;53.654;10.014;2023-04-03T05:06:01;-1.60;99.90
46508;DHT22;32223;53.654;10.014;2023-04-03T05:08:27;-1.60;99.90
46508;DHT22;32223;53.654;10.014;2023-04-03T05:10:53;-1.50;99.90
46508;DHT22;32223;53.654;10.014;2023-04-03T05:13:19;-1.50;99.90
46508;DHT22;32223;53.654;10.014;2023-04-03T05:15:45;-1.50;99.90
46508;DHT22;32223;53.654;10.014;2023-04-03T05:18:11;-1.50;99.90
46508;DHT22;32223;53.654;10.014;2023-04-03T05:20:36;-1.50;99.90
46508;DHT22;32223;53.654;10.014;2023-04-03T05:23:02;-1.50;99.90
46508;DHT22;32223;53.654;10.014;2023-04-03T05:25:28;-1.40;99.90
46508;DHT22;32223;53.654;10.014;2023-04-03T05:27:53;-1.40;99.90
46508;DHT22;32223;53.654;10.014;2023-04-03T05:30:19;-1.40;99.90
46508;DHT22;32223;53.654;10.014;2023-04-03T05:32:45;-1.30;99.90
46508;DHT22;32223;53.654;10.014;2023-04-03T05:35:11;-1.30;99.90
46508;DHT22;32223;53.654;10.014;2023-04-03T05:37:36;-1.30;99.90
46508;DHT22;32223;53.654;10.014;2023-04-03T05:40:04;-1.20;99.90
46508;DHT22;32223;53.654;10.014;2023-04-03T05:42:29;-1.20;99.90
46508;DHT22;32223;53.654;10.014;2023-04-03T05:44:55;-1.20;99.90
46508;DHT22;32223;53.654;10.014;2023-04-03T05:47:22;-1.10;99.90
46508;DHT22;32223;53.654;10.014;2023-04-03T05:49:47;-1.00;99.90
46508;DHT22;32223;53.654;10.014;2023-04-03T05:52:31;-1.00;99.90
46508;DHT22;32223;53.654;10.014;2023-04-03T05:54:58;-0.80;99.90
46508;DHT22;32223;53.654;10.014;2023-04-03T05:57:24;-0.70;99.90
46508;DHT22;32223;53.654;10.014;2023-04-03T05:59:50;-0.60;99.90
46508;DHT22;32223;53.654;10.014;2023-04-03T06:02:18;-0.50;99.90
46508;DHT22;32223;53.654;10.014;2023-04-03T06:04:44;-0.50;99.90
46508;DHT22;32223;53.654;10.014;2023-04-03T06:07:12;-0.30;99.90
46508;DHT22;32223;53.654;10.014;2023-04-03T06:09:38;-0.30;99.90
46508;DHT22;32223;53.654;10.014;2023-04-03T06:12:04;-0.20;99.90
46508;DHT22;32223;53.654;10.014;2023-04-03T06:14:30;-0.10;99.90
46508;DHT22;32223;53.654;10.014;2023-04-03T06:16:56;-0.10;99.90
46508;DHT22;32223;53.654;10.014;2023-04-03T06:19:21;0.00;99.90
46508;DHT22;32223;53.654;10.014;2023-04-03T06:21:47;0.10;99.90
46508;DHT22;32223;53.654;10.014;2023-04-03T06:24:16;0.20;99.90
46508;DHT22;32223;53.654;10.014;2023-04-03T06:26:42;0.30;99.90
46508;DHT22;32223;53.654;10.014;2023-04-03T06:29:08;0.40;99.90
46508;DHT22;32223;53.654;10.014;2023-04-03T06:31:33;0.50;99.90
46508;DHT22;32223;53.654;10.014;2023-04-03T06:33:59;0.60;99.90
46508;DHT22;32223;53.654;10.014;2023-04-03T06:36:25;0.80;99.90
46508;DHT22;32223;53.654;10.014;2023-04-03T06:38:51;0.90;99.90
46508;DHT22;32223;53.654;10.014;2023-04-03T06:41:17;1.00;99.90
46508;DHT22;32223;53.654;10.014;2023-04-03T06:43:43;1.10;99.90
46508;DHT22;32223;53.654;10.014;2023-04-03T06:46:17;1.20;99.90
46508;DHT22;32223;53.654;10.014;2023-04-03T06:48:44;1.40;99.90
46508;DHT22;32223;53.654;10.014;2023-04-03T06:51:26;1.50;99.90
46508;DHT22;32223;53.654;10.014;2023-04-03T06:53:55;1.60;99.90
46508;DHT22;32223;53.654;10.014;2023-04-03T06:56:21;1.80;99.90
46508;DHT22;32223;53.654;10.014;2023-04-03T06:58:47;1.90;99.90
46508;DHT22;32223;53.654;10.014;2023-04-03T07:01:15;2.00;99.90
46508;DHT22;32223;53.654;10.014;2023-04-03T07:03:41;2.10;99.90
46508;DHT22;32223;53.654;10.014;2023-04-03T07:06:11;2.30;99.90
46508;DHT22;32223;53.654;10.014;2023-04-03T07:08:38;2.40;99.90
46508;DHT22;32223;53.654;10.014;2023-04-03T07:11:04;2.50;99.90
46508;DHT22;32223;53.654;10.014;2023-04-03T07:13:30;2.60;99.90
46508;DHT22;32223;53.654;10.014;2023-04-03T07:15:56;2.70;99.90
46508;DHT22;32223;53.654;10.014;2023-04-03T07:18:23;2.80;99.90
46508;DHT22;32223;53.654;10.014;2023-04-03T07:20:48;2.90;99.90
46508;DHT22;32223;53.654;10.014;2023-04-03T07:23:14;3.10;99.90
46508;DHT22;32223;53.654;10.014;2023-04-03T07:25:44;3.20;99.90
46508;DHT22;32223;53.654;10.014;2023-04-03T07:28:10;3.30;99.90
46508;DHT22;32223;53.654;10.014;2023-04-03T07:30:45;3.40;99.90
46508;DHT22;32223;53.654;10.014;2023-04-03T07:33:13;3.50;99.90
46508;DHT22;32223;53.654;10.014;2023-04-03T07:35:39;3.50;99.90
46508;DHT22;32223;53.654;10.014;2023-04-03T07:38:06;3.60;99.90
46508;DHT22;32223;53.654;10.014;2023-04-03T07:40:32;3.70;99.90
46508;DHT22;32223;53.654;10.014;2023-04-03T07:42:57;3.80;99.90
46508;DHT22;32223;53.654;10.014;2023-04-03T07:45:24;3.90;99.90
46508;DHT22;32223;53.654;10.014;2023-04-03T07:47:50;4.00;99.90
46508;DHT22;32223;53.654;10.014;2023-04-03T07:50:16;4.10;99.90
46508;DHT22;32223;53.654;10.014;2023-04-03T07:52:41;4.20;99.90
46508;DHT22;32223;53.654;10.014;2023-04-03T07:55:08;4.30;99.90
46508;DHT22;32223;53.654;10.014;2023-04-03T07:57:33;4.40;99.90
46508;DHT22;32223;53.654;10.014;2023-04-03T07:59:59;4.50;99.90
46508;DHT22;32223;53.654;10.014;2023-04-03T08:02:24;4.60;99.90
46508;DHT22;32223;53.654;10.014;2023-04-03T08:04:50;4.60;99.90
46508;DHT22;32223;53.654;10.014;2023-04-03T08:07:16;4.70;99.90
46508;DHT22;32223;53.654;10.014;2023-04-03T08:09:41;4.80;99.90
46508;DHT22;32223;53.654;10.014;2023-04-03T08:12:07;4.80;99.90
46508;DHT22;32223;53.654;10.014;2023-04-03T08:14:33;4.80;99.90
46508;DHT22;32223;53.654;10.014;2023-04-03T08:17:01;4.80;99.90
46508;DHT22;32223;53.654;10.014;2023-04-03T08:19:28;4.90;99.90
46508;DHT22;32223;53.654;10.014;2023-04-03T08:21:54;5.00;99.90
46508;DHT22;32223;53.654;10.014;2023-04-03T08:24:20;5.10;99.90
46508;DHT22;32223;53.654;10.014;2023-04-03T08:26:46;5.10;99.90
46508;DHT22;32223;53.654;10.014;2023-04-03T08:29:11;5.10;99.90
46508;DHT22;32223;53.654;10.014;2023-04-03T08:31:37;5.10;99.90
46508;DHT22;32223;53.654;10.014;2023-04-03T08:34:03;5.20;99.90
46508;DHT22;32223;53.654;10.014;2023-04-03T08:36:29;5.20;99.90
46508;DHT22;32223;53.654;10.014;2023-04-03T08:38:56;5.10;99.90
46508;DHT22;32223;53.654;10.014;2023-04-03T08:41:41;5.00;99.90
46508;DHT22;32223;53.654;10.014;2023-04-03T08:44:23;4.90;99.90
46508;DHT22;32223;53.654;10.014;2023-04-03T08:49:39;5.10;99.90
46508;DHT22;32223;53.654;10.014;2023-04-03T08:52:11;5.20;99.90
46508;DHT22;32223;53.654;10.014;2023-04-03T08:54:52;5.30;99.90
46508;DHT22;32223;53.654;10.014;2023-04-03T08:57:30;5.50;99.90
46508;DHT22;32223;53.654;10.014;2023-04-03T08:59:58;5.60;99.90
46508;DHT22;32223;53.654;10.014;2023-04-03T09:02:31;5.70;99.90
46508;DHT22;32223;53.654;10.014;2023-04-03T09:04:59;5.80;99.90
46508;DHT22;32223;53.654;10.014;2023-04-03T09:07:38;5.80;99.90
46508;DHT22;32223;53.654;10.014;2023-04-03T09:10:05;5.80;99.90
46508;DHT22;32223;53.654;10.014;2023-04-03T09:12:41;6.00;99.90
46508;DHT22;32223;53.654;10.014;2023-04-03T09:15:21;6.10;99.90
46508;DHT22;32223;53.654;10.014;2023-04-03T09:17:57;6.10;99.90
46508;DHT22;32223;53.654;10.014;2023-04-03T09:24:07;6.20;99.90
46508;DHT22;32223;53.654;10.014;2023-04-03T09:26:17;6.10;99.90
46508;DHT22;32223;53.654;10.014;2023-04-03T09:28:43;6.10;99.90
46508;DHT22;32223;53.654;10.014;2023-04-03T09:31:24;6.30;99.90
46508;DHT22;32223;53.654;10.014;2023-04-03T09:34:15;6.60;99.90
46508;DHT22;32223;53.654;10.014;2023-04-03T09:36:43;6.60;99.90
46508;DHT22;32223;53.654;10.014;2023-04-03T09:39:13;6.60;99.90
46508;DHT22;32223;53.654;10.014;2023-04-03T09:41:40;6.80;99.90
46508;DHT22;32223;53.654;10.014;2023-04-03T09:44:21;6.90;99.90
46508;DHT22;32223;53.654;10.014;2023-04-03T09:46:47;7.10;99.90
46508;DHT22;32223;53.654;10.014;2023-04-03T09:49:13;7.20;99.90
46508;DHT22;32223;53.654;10.014;2023-04-03T09:51:40;7.40;99.90
46508;DHT22;32223;53.654;10.014;2023-04-03T09:54:31;7.40;99.90
46508;DHT22;32223;53.654;10.014;2023-04-03T09:57:02;7.30;99.90
46508;DHT22;32223;53.654;10.014;2023-04-03T09:59:31;7.40;99.90
46508;DHT22;32223;53.654;10.014;2023-04-03T10:04:39;7.40;99.90
46508;DHT22;32223;53.654;10.014;2023-04-03T10:07:29;7.40;99.90
46508;DHT22;32223;53.654;10.014;2023-04-03T10:10:01;7.50;99.90
46508;DHT22;32223;53.654;10.014;2023-04-03T10:12:29;7.50;99.90
46508;DHT22;32223;53.654;10.014;2023-04-03T10:15:00;7.60;99.90
46508;DHT22;32223;53.654;10.014;2023-04-03T10:17:35;7.80;99.90
46508;DHT22;32223;53.654;10.014;2023-04-03T10:22:46;7.70;99.90
46508;DHT22;32223;53.654;10.014;2023-04-03T10:25:24;7.80;99.90
46508;DHT22;32223;53.654;10.014;2023-04-03T10:28:10;8.00;99.90
46508;DHT22;32223;53.654;10.014;2023-04-03T10:47:23;8.20;99.00
46508;DHT22;32223;53.654;10.014;2023-04-03T10:52:30;8.40;97.50
46508;DHT22;32223;53.654;10.014;2023-04-03T10:55:24;8.30;97.10
46508;DHT22;32223;53.654;10.014;2023-04-03T10:57:54;8.20;98.00
46508;DHT22;32223;53.654;10.014;2023-04-03T11:00:31;7.90;97.10
46508;DHT22;32223;53.654;10.014;2023-04-03T11:03:48;7.70;98.40
46508;DHT22;32223;53.654;10.014;2023-04-03T11:05:55;7.70;98.50
46508;DHT22;32223;53.654;10.014;2023-04-03T11:08:35;7.80;99.20
46508;DHT22;32223;53.654;10.014;2023-04-03T11:11:07;7.90;98.60
46508;DHT22;32223;53.654;10.014;2023-04-03T11:13:52;7.60;98.10
46508;DHT22;32223;53.654;10.014;2023-04-03T11:16:26;7.50;99.10
46508;DHT22;32223;53.654;10.014;2023-04-03T11:18:59;7.40;98.60
46508;DHT22;32223;53.654;10.014;2023-04-03T11:21:44;7.20;99.80
46508;DHT22;32223;53.654;10.014;2023-04-03T11:24:20;7.00;99.80
46508;DHT22;32223;53.654;10.014;2023-04-03T11:26:49;6.90;99.90
46508;DHT22;32223;53.654;10.014;2023-04-03T11:29:19;7.30;99.60
46508;DHT22;32223;53.654;10.014;2023-04-03T11:34:40;8.10;99.50
46508;DHT22;32223;53.654;10.014;2023-04-03T11:39:58;8.00;98.90
46508;DHT22;32223;53.654;10.014;2023-04-03T11:42:36;8.10;99.60
46508;DHT22;32223;53.654;10.014;2023-04-03T11:45:50;8.60;99.90
46508;DHT22;32223;53.654;10.014;2023-04-03T11:50:47;8.30;98.90
46508;DHT22;32223;53.654;10.014;2023-04-03T11:53:26;8.00;99.60
46508;DHT22;32223;53.654;10.014;2023-04-03T11:55:55;7.90;99.90
46508;DHT22;32223;53.654;10.014;2023-04-03T11:58:29;7.80;99.90
46508;DHT22;32223;53.654;10.014;2023-04-03T12:01:01;7.70;99.80
46508;DHT22;32223;53.654;10.014;2023-04-03T12:04:03;7.50;98.50
46508;DHT22;32223;53.654;10.014;2023-04-03T12:08:59;7.60;97.60
46508;DHT22;32223;53.654;10.014;2023-04-03T12:11:32;8.00;98.50
46508;DHT22;32223;53.654;10.014;2023-04-03T12:29:50;11.30;88.30
46508;DHT22;32223;53.654;10.014;2023-04-03T12:51:14;10.00;86.10
46508;DHT22;32223;53.654;10.014;2023-04-03T12:53:42;9.60;88.10
46508;DHT22;32223;53.654;10.014;2023-04-03T12:58:46;9.60;88.70
46508;DHT22;32223;53.654;10.014;2023-04-03T13:01:14;9.50;86.90
46508;DHT22;32223;53.654;10.014;2023-04-03T13:03:45;10.00;86.80
46508;DHT22;32223;53.654;10.014;2023-04-03T13:06:32;10.30;85.70
46508;DHT22;32223;53.654;10.014;2023-04-03T13:09:01;10.10;83.30
46508;DHT22;32223;53.654;10.014;2023-04-03T13:11:39;9.80;82.50
46508;DHT22;32223;53.654;10.014;2023-04-03T13:14:21;10.20;84.50
46508;DHT22;32223;53.654;10.014;2023-04-03T13:17:09;10.40;82.80
46508;DHT22;32223;53.654;10.014;2023-04-03T13:19:36;11.10;82.70
46508;DHT22;32223;53.654;10.014;2023-04-03T13:22:07;11.30;81.00
46508;DHT22;32223;53.654;10.014;2023-04-03T13:24:37;11.10;80.90
46508;DHT22;32223;53.654;10.014;2023-04-03T13:27:05;12.10;82.20
46508;DHT22;32223;53.654;10.014;2023-04-03T13:29:38;13.20;78.20
46508;DHT22;32223;53.654;10.014;2023-04-03T13:32:05;14.40;70.70
46508;DHT22;32223;53.654;10.014;2023-04-03T13:34:38;15.10;66.60
46508;DHT22;32223;53.654;10.014;2023-04-03T13:37:06;15.20;66.20
46508;DHT22;32223;53.654;10.014;2023-04-03T13:39:35;14.40;65.30
46508;DHT22;32223;53.654;10.014;2023-04-03T13:42:27;13.80;66.10
46508;DHT22;32223;53.654;10.014;2023-04-03T13:45:23;14.10;65.70
46508;DHT22;32223;53.654;10.014;2023-04-03T13:47:51;15.10;68.20
46508;DHT22;32223;53.654;10.014;2023-04-03T13:53:08;16.50;63.40
46508;DHT22;32223;53.654;10.014;2023-04-03T13:55:50;17.00;60.20
46508;DHT22;32223;53.654;10.014;2023-04-03T13:58:28;17.20;57.70
46508;DHT22;32223;53.654;10.014;2023-04-03T14:01:22;16.90;57.80
46508;DHT22;32223;53.654;10.014;2023-04-03T14:03:59;16.60;57.50
46508;DHT22;32223;53.654;10.014;2023-04-03T14:06:26;16.30;58.20
46508;DHT22;32223;53.654;10.014;2023-04-03T14:08:52;16.20;59.60
46508;DHT22;32223;53.654;10.014;2023-04-03T14:11:21;16.70;58.60
46508;DHT22;32223;53.654;10.014;2023-04-03T14:13:48;17.00;57.10
46508;DHT22;32223;53.654;10.014;2023-04-03T14:16:18;16.70;57.50
46508;DHT22;32223;53.654;10.014;2023-04-03T14:18:44;15.70;58.30
46508;DHT22;32223;53.654;10.014;2023-04-03T14:21:15;14.60;59.80
46508;DHT22;32223;53.654;10.014;2023-04-03T14:23:42;14.80;61.80
46508;DHT22;32223;53.654;10.014;2023-04-03T14:26:16;15.50;61.00
46508;DHT22;32223;53.654;10.014;2023-04-03T14:28:45;16.00;59.20
46508;DHT22;32223;53.654;10.014;2023-04-03T14:31:12;16.30;59.90
46508;DHT22;32223;53.654;10.014;2023-04-03T14:33:39;16.80;59.40
46508;DHT22;32223;53.654;10.014;2023-04-03T14:36:31;16.50;59.10
46508;DHT22;32223;53.654;10.014;2023-04-03T14:39:00;16.50;57.80
46508;DHT22;32223;53.654;10.014;2023-04-03T14:41:26;15.80;58.20
46508;DHT22;32223;53.654;10.014;2023-04-03T14:43:52;15.20;58.60
46508;DHT22;32223;53.654;10.014;2023-04-03T14:46:28;15.30;59.50
46508;DHT22;32223;53.654;10.014;2023-04-03T14:48:55;15.30;59.90
46508;DHT22;32223;53.654;10.014;2023-04-03T14:51:21;15.10;60.20
46508;DHT22;32223;53.654;10.014;2023-04-03T14:53:46;15.50;59.60
46508;DHT22;32223;53.654;10.014;2023-04-03T14:56:18;15.60;60.10
46508;DHT22;32223;53.654;10.014;2023-04-03T14:58:47;15.90;60.30
46508;DHT22;32223;53.654;10.014;2023-04-03T15:01:16;15.60;59.80
46508;DHT22;32223;53.654;10.014;2023-04-03T15:03:42;14.10;60.90
46508;DHT22;32223;53.654;10.014;2023-04-03T15:06:12;12.80;63.80
46508;DHT22;32223;53.654;10.014;2023-04-03T15:08:39;11.50;66.70
46508;DHT22;32223;53.654;10.014;2023-04-03T15:11:07;10.70;67.80
46508;DHT22;32223;53.654;10.014;2023-04-03T15:13:32;10.00;69.60
46508;DHT22;32223;53.654;10.014;2023-04-03T15:15:58;9.40;71.70
46508;DHT22;32223;53.654;10.014;2023-04-03T15:18:27;9.00;73.40
46508;DHT22;32223;53.654;10.014;2023-04-03T15:20:54;8.50;75.60
46508;DHT22;32223;53.654;10.014;2023-04-03T15:23:20;8.10;77.30
46508;DHT22;32223;53.654;10.014;2023-04-03T15:25:51;8.30;77.50
46508;DHT22;32223;53.654;10.014;2023-04-03T15:28:39;9.20;76.00
46508;DHT22;32223;53.654;10.014;2023-04-03T15:31:04;10.20;74.00
46508;DHT22;32223;53.654;10.014;2023-04-03T15:33:32;11.50;71.10
46508;DHT22;32223;53.654;10.014;2023-04-03T15:35:58;12.50;69.50
46508;DHT22;32223;53.654;10.014;2023-04-03T15:38:24;13.30;68.00
46508;DHT22;32223;53.654;10.014;2023-04-03T15:40:50;13.80;68.40
46508;DHT22;32223;53.654;10.014;2023-04-03T15:43:16;14.30;70.20
46508;DHT22;32223;53.654;10.014;2023-04-03T15:45:43;14.80;65.40
46508;DHT22;32223;53.654;10.014;2023-04-03T15:48:10;14.40;65.20
46508;DHT22;32223;53.654;10.014;2023-04-03T15:50:36;14.40;65.50
46508;DHT22;32223;53.654;10.014;2023-04-03T15:53:02;13.60;65.30
46508;DHT22;32223;53.654;10.014;2023-04-03T15:55:30;12.30;67.70
46508;DHT22;32223;53.654;10.014;2023-04-03T15:57:56;11.00;70.30
46508;DHT22;32223;53.654;10.014;2023-04-03T16:00:23;10.30;71.90
46508;DHT22;32223;53.654;10.014;2023-04-03T16:02:58;9.50;73.30
46508;DHT22;32223;53.654;10.014;2023-04-03T16:05:25;8.80;75.10
46508;DHT22;32223;53.654;10.014;2023-04-03T16:07:51;8.20;76.90
46508;DHT22;32223;53.654;10.014;2023-04-03T16:10:17;8.30;78.30
46508;DHT22;32223;53.654;10.014;2023-04-03T16:12:43;8.20;78.60
46508;DHT22;32223;53.654;10.014;2023-04-03T16:15:10;8.10;79.90
46508;DHT22;32223;53.654;10.014;2023-04-03T16:17:37;9.10;79.50
46508;DHT22;32223;53.654;10.014;2023-04-03T16:20:04;10.30;76.20
46508;DHT22;32223;53.654;10.014;2023-04-03T16:22:30;10.90;73.80
46508;DHT22;32223;53.654;10.014;2023-04-03T16:24:56;11.30;74.00
46508;DHT22;32223;53.654;10.014;2023-04-03T16:27:22;11.30;74.90
46508;DHT22;32223;53.654;10.014;2023-04-03T16:29:55;11.80;74.00
46508;DHT22;32223;53.654;10.014;2023-04-03T16:32:22;11.80;74.10
46508;DHT22;32223;53.654;10.014;2023-04-03T16:34:48;11.60;74.60
46508;DHT22;32223;53.654;10.014;2023-04-03T16:37:14;10.90;74.60
46508;DHT22;32223;53.654;10.014;2023-04-03T16:39:40;10.10;76.60
46508;DHT22;32223;53.654;10.014;2023-04-03T16:42:05;9.00;79.50
46508;DHT22;32223;53.654;10.014;2023-04-03T16:44:31;8.20;82.40
46508;DHT22;32223;53.654;10.014;2023-04-03T16:46:56;7.50;87.00
46508;DHT22;32223;53.654;10.014;2023-04-03T16:49:22;7.10;92.40
46508;DHT22;32223;53.654;10.014;2023-04-03T16:51:48;6.70;95.70
46508;DHT22;32223;53.654;10.014;2023-04-03T16:54:14;6.40;98.40
46508;DHT22;32223;53.654;10.014;2023-04-03T16:56:40;6.20;99.90
46508;DHT22;32223;53.654;10.014;2023-04-03T16:59:06;6.10;99.90
46508;DHT22;32223;53.654;10.014;2023-04-03T17:01:32;5.90;99.90
46508;DHT22;32223;53.654;10.014;2023-04-03T17:03:58;5.80;99.90